Time;durP1;ratioP1;P1;durP2;ratioP2;P2;SDS_P1;SDS_P2;PMS_P1;PMS_P2;Temp;Humidity;BMP_temperature;BMP_pressure;BME280_temperature;BME280_humidity;BME280_pressure;Samples;Min_cycle;Max_cycle;Signal;HPM_P1;HPM_P2
2023/05/01 00:00:51;;;;;;;2.13;1.40;;;;;;;10.12;69.58;100156.03;6261687;28;20045;-75
2023/05/01 00:03:53;;;;;;;4.72;1.95;;;;;;;10.02;69.93;100155.72;6256878;28;20127;-75
2023/05/01 00:06:53;;;;;;;3.53;1.60;;;;;;;9.93;70.13;100155.41;6267244;28;20053;-75
2023/05/01 00:09:54;;;;;;;2.10;1.42;;;;;;;9.85;70.04;100151.47;6253809;28;20519;-75
2023/05/01 00:12:55;;;;;;;2.38;1.35;;;;;;;9.81;70.82;100147.34;6262912;28;20404;-75
2023/05/01 00:15:56;;;;;;;2.97;1.42;;;;;;;9.82;70.68;100148.19;6271584;28;20139;-75
2023/05/01 00:18:57;;;;;;;1.40;1.25;;;;;;;9.84;70.97;100152.41;6270554;28;20045;-75
2023/05/01 00:21:57;;;;;;;4.82;1.42;;;;;;;9.79;71.08;100153.56;6265786;28;20102;-75
2023/05/01 00:24:58;;;;;;;2.30;1.67;;;;;;;9.76;71.69;100144.19;6272550;28;20408;-75
2023/05/01 00:27:59;;;;;;;1.50;1.23;;;;;;;9.82;71.23;100154.25;6273351;28;20049;-75
2023/05/01 00:31:00;;;;;;;2.95;1.50;;;;;;;9.72;71.06;100147.00;6258981;28;20436;-75
2023/05/01 00:34:01;;;;;;;6.45;1.52;;;;;;;9.76;70.61;100154.59;6273383;28;20048;-75
2023/05/01 00:37:01;;;;;;;4.53;1.67;;;;;;;9.77;70.36;100156.25;6252896;28;20401;-75
2023/05/01 00:40:04;;;;;;;1.90;1.52;;;;;;;9.75;70.68;100162.50;6251110;28;20489;-74
2023/05/01 00:43:04;;;;;;;2.55;1.52;;;;;;;9.70;70.78;100165.38;6281340;28;20053;-74
2023/05/01 00:46:06;;;;;;;2.78;1.33;;;;;;;9.76;71.17;100167.63;6266939;28;20135;-74
2023/05/01 00:49:08;;;;;;;1.95;1.33;;;;;;;9.68;70.37;100162.00;6269470;28;20072;-74
2023/05/01 00:52:10;;;;;;;2.25;1.48;;;;;;;9.64;70.22;100160.50;6269829;28;20056;-72
2023/05/01 00:55:11;;;;;;;3.58;1.90;;;;;;;9.61;69.75;100168.47;6252628;28;20102;-75
2023/05/01 00:58:15;;;;;;;2.05;1.35;;;;;;;9.57;70.17;100175.59;6266381;28;20049;-75
2023/05/01 01:01:16;;;;;;;5.80;1.83;;;;;;;9.54;70.79;100170.56;6255444;28;20050;-75
2023/05/01 01:04:17;;;;;;;2.65;1.60;;;;;;;9.47;71.27;100180.50;6250143;28;20118;-75
2023/05/01 01:07:54;;;;;;;3.20;1.48;;;;;;;9.45;70.86;100184.94;6262641;28;20049;-72
2023/05/01 01:11:09;;;;;;;7.82;1.80;;;;;;;9.42;70.49;100174.69;6248467;28;20473;-72
2023/05/01 01:14:35;;;;;;;3.75;1.60;;;;;;;9.25;70.34;100173.00;6246620;28;20045;-75
2023/05/01 01:17:38;;;;;;;1.65;1.50;;;;;;;9.28;69.48;100177.19;6252184;28;20056;-75
2023/05/01 01:20:51;;;;;;;3.42;1.23;;;;;;;9.32;69.81;100175.25;6255470;28;20044;-71
2023/05/01 01:24:01;;;;;;;1.48;1.38;;;;;;;9.28;68.02;100177.19;6268707;28;20053;-71
2023/05/01 01:28:00;;;;;;;4.57;1.48;;;;;;;9.32;66.97;100180.47;6251551;28;20421;-71
2023/05/01 01:31:12;;;;;;;4.18;1.95;;;;;;;9.22;66.91;100180.94;6224987;28;20171;-72
2023/05/01 01:34:34;;;;;;;1.40;1.17;;;;;;;9.24;67.46;100181.72;6228186;28;20512;-75
2023/05/01 01:38:01;;;;;;;1.65;1.17;;;;;;;9.20;67.68;100181.97;6264114;28;20107;-75
2023/05/01 01:41:32;;;;;;;1.27;1.05;;;;;;;9.03;68.64;100183.69;6255001;28;20330;-72
2023/05/01 01:44:40;;;;;;;6.20;1.50;;;;;;;9.06;69.04;100187.91;6250678;28;20512;-75
2023/05/01 01:47:43;;;;;;;4.35;1.88;;;;;;;8.96;69.15;100181.50;6247344;28;20088;-75
2023/05/01 01:50:46;;;;;;;1.75;1.42;;;;;;;8.83;68.54;100192.56;6245694;28;20049;-74
2023/05/01 01:53:52;;;;;;;2.17;1.27;;;;;;;8.74;69.10;100184.38;6258001;28;20052;-74
2023/05/01 01:56:57;;;;;;;1.90;1.23;;;;;;;8.69;67.95;100187.22;6258540;28;20045;-74
2023/05/01 01:59:58;;;;;;;1.83;1.20;;;;;;;8.72;67.69;100181.84;6246728;28;20050;-74
2023/05/01 02:03:02;;;;;;;2.47;1.08;;;;;;;8.62;67.01;100172.81;6266647;28;20497;-74
2023/05/01 02:06:05;;;;;;;2.13;1.60;;;;;;;8.65;66.94;100183.91;6271532;28;20060;-74
2023/05/01 02:09:08;;;;;;;1.75;1.35;;;;;;;8.66;67.38;100184.75;6271272;28;20114;-75
2023/05/01 02:12:11;;;;;;;1.98;1.27;;;;;;;8.58;66.86;100179.94;6271255;28;20053;-75
2023/05/01 02:15:14;;;;;;;;;;;;;;;8.47;66.54;100193.47;6261320;28;20050;-75
2023/05/01 02:18:19;;;;;;;5.25;1.15;;;;;;;8.53;67.32;100192.34;6246436;28;19921;-75
2023/05/01 02:21:21;;;;;;;1.67;1.20;;;;;;;8.41;66.58;100191.19;6250372;28;20048;-75
2023/05/01 02:24:24;;;;;;;1.38;1.10;;;;;;;8.43;66.75;100193.72;6250204;28;20413;-75
2023/05/01 02:27:37;;;;;;;1.88;1.52;;;;;;;8.39;67.28;100203.41;6250269;28;20108;-75
2023/05/01 02:30:41;;;;;;;2.42;1.40;;;;;;;8.38;66.61;100203.47;6251153;28;20089;-75
2023/05/01 02:33:44;;;;;;;1.35;1.13;;;;;;;8.28;67.07;100201.34;6274494;28;20045;-75
2023/05/01 02:36:45;;;;;;;2.05;1.10;;;;;;;8.17;66.90;100202.75;6275862;28;20131;-74
2023/05/01 02:39:46;;;;;;;1.33;1.10;;;;;;;8.16;67.09;100204.53;6275951;28;20053;-74
2023/05/01 02:42:48;;;;;;;3.15;1.13;;;;;;;8.08;66.37;100204.88;6274386;28;20064;-74
2023/05/01 02:45:51;;;;;;;2.55;1.45;;;;;;;8.06;66.85;100203.28;6275996;28;20132;-74
2023/05/01 02:48:53;;;;;;;3.80;1.58;;;;;;;8.07;66.54;100199.75;6275579;28;20487;-75
2023/05/01 02:51:56;;;;;;;4.97;1.55;;;;;;;8.09;66.35;100200.53;6274636;28;20072;-74
2023/05/01 02:54:57;;;;;;;1.52;1.05;;;;;;;8.14;66.27;100211.56;6275381;28;20469;-74
2023/05/01 02:58:01;;;;;;;2.25;1.10;;;;;;;8.03;65.29;100200.81;6275351;28;20048;-75
2023/05/01 03:01:02;;;;;;;2.35;1.30;;;;;;;8.00;65.55;100194.03;6274306;28;21072;-74
2023/05/01 03:04:05;;;;;;;4.85;1.38;;;;;;;8.12;64.74;100199.56;6275279;28;20049;-75
2023/05/01 03:07:08;;;;;;;1.85;1.35;;;;;;;8.10;63.83;100206.59;6275304;28;20107;-74
2023/05/01 03:10:12;;;;;;;2.03;1.27;;;;;;;8.08;64.06;100204.06;6275132;28;20045;-74
2023/05/01 03:13:13;;;;;;;5.55;0.90;;;;;;;7.92;65.00;100211.75;6273649;28;20660;-74
2023/05/01 03:16:14;;;;;;;2.17;1.02;;;;;;;7.89;64.97;100214.50;6274815;28;20059;-74
2023/05/01 03:19:15;;;;;;;2.10;1.40;;;;;;;7.80;65.06;100205.38;6271731;28;20416;-74
2023/05/01 03:22:16;;;;;;;2.38;1.27;;;;;;;7.81;64.95;100199.25;6253341;28;20425;-74
2023/05/01 03:25:19;;;;;;;1.33;1.00;;;;;;;7.77;65.02;100202.91;6249064;28;20057;-74
2023/05/01 03:28:22;;;;;;;3.33;1.27;;;;;;;7.85;65.08;100197.38;6250022;28;20482;-74
2023/05/01 03:31:23;;;;;;;1.30;1.10;;;;;;;7.84;64.99;100200.88;6247935;28;20049;-74
2023/05/01 03:34:26;;;;;;;1.88;1.23;;;;;;;7.78;63.98;100201.16;6249805;28;20049;-74
2023/05/01 03:37:27;;;;;;;1.48;1.00;;;;;;;7.76;64.78;100206.44;6249729;28;20049;-74
2023/05/01 03:40:28;;;;;;;4.10;0.90;;;;;;;7.84;63.85;100206.06;6249687;28;21383;-74
2023/05/01 03:43:29;;;;;;;2.85;1.08;;;;;;;7.94;62.96;100202.13;6248438;28;20049;-74
2023/05/01 03:46:29;;;;;;;1.33;0.93;;;;;;;7.92;63.28;100198.75;6249576;28;20060;-74
2023/05/01 03:49:30;;;;;;;2.92;1.30;;;;;;;8.00;62.70;100200.97;6249413;28;20057;-74
2023/05/01 03:52:31;;;;;;;2.05;1.30;;;;;;;7.92;62.00;100205.72;6248335;28;20041;-74
2023/05/01 03:55:32;;;;;;;1.85;1.20;;;;;;;7.95;61.47;100208.16;6264534;28;20053;-74
2023/05/01 03:58:37;;;;;;;2.53;1.25;;;;;;;8.04;62.61;100208.56;6273131;28;20132;-74
2023/05/01 04:01:39;;;;;;;1.48;1.27;;;;;;;8.03;61.31;100201.69;6272959;28;20045;-74
2023/05/01 04:04:40;;;;;;;2.35;1.05;;;;;;;7.94;61.49;100209.06;6272730;28;20053;-74
2023/05/01 04:07:41;;;;;;;1.50;0.98;;;;;;;8.11;62.33;100203.06;6272653;28;20057;-74
2023/05/01 04:10:44;;;;;;;1.85;1.45;;;;;;;8.23;62.17;100218.06;6266457;28;20509;-74
2023/05/01 04:13:45;;;;;;;1.52;0.95;;;;;;;8.20;61.20;100218.22;6248870;28;20494;-75
2023/05/01 04:16:49;;;;;;;3.17;1.52;;;;;;;8.18;60.66;100220.88;6249245;28;20087;-74
2023/05/01 04:19:54;;;;;;;1.88;1.23;;;;;;;8.26;60.68;100221.38;6247718;28;20496;-74
2023/05/01 04:22:54;;;;;;;1.30;0.98;;;;;;;8.27;60.75;100225.63;6247641;28;20049;-75
2023/05/01 04:25:55;;;;;;;2.60;0.95;;;;;;;8.38;60.29;100226.88;6248457;28;20108;-74
2023/05/01 04:28:56;;;;;;;5.55;1.20;;;;;;;8.50;60.32;100230.66;6249044;28;20045;-74
2023/05/01 04:31:57;;;;;;;1.27;1.15;;;;;;;8.48;60.03;100241.13;6247448;28;20041;-75
2023/05/01 04:34:58;;;;;;;2.25;1.30;;;;;;;8.42;59.61;100236.22;6250029;28;20045;-74
2023/05/01 04:37:59;;;;;;;1.27;0.95;;;;;;;8.47;59.51;100223.84;6262308;28;20497;-75
2023/05/01 04:40:59;;;;;;;3.42;0.88;;;;;;;8.63;59.30;100224.78;6273156;28;20098;-74
2023/05/01 04:44:03;;;;;;;0.93;0.85;;;;;;;8.68;59.10;100235.78;6264441;28;20057;-74
2023/05/01 04:47:04;;;;;;;2.30;0.88;;;;;;;8.70;58.92;100230.50;6247056;28;20056;-75
2023/05/01 04:50:06;;;;;;;0.65;0.65;;;;;;;8.82;58.18;100216.88;6246774;28;20413;-75
2023/05/01 04:53:07;;;;;;;0.95;0.80;;;;;;;8.91;57.88;100220.75;6246921;28;20052;-74
2023/05/01 04:56:08;;;;;;;2.13;1.25;;;;;;;9.01;57.20;100218.53;6247904;28;20053;-74
2023/05/01 04:59:09;;;;;;;1.30;0.93;;;;;;;9.09;56.37;100216.38;6246638;28;20099;-74
2023/05/01 05:02:12;;;;;;;1.73;1.20;;;;;;;9.20;55.74;100221.00;6246679;28;20474;-74
2023/05/01 05:05:16;;;;;;;2.80;1.17;;;;;;;9.33;56.17;100213.38;6247990;28;20056;-74
2023/05/01 05:08:17;;;;;;;0.98;0.85;;;;;;;9.39;54.84;100215.66;6246425;28;20049;-74
2023/05/01 05:11:23;;;;;;;2.78;1.05;;;;;;;9.55;55.56;100218.28;6246318;28;20107;-74
2023/05/01 05:14:25;;;;;;;1.65;1.05;;;;;;;9.63;54.24;100216.94;6246425;28;20057;-74
2023/05/01 05:17:28;;;;;;;3.60;0.80;;;;;;;9.75;54.50;100217.22;6246196;28;20072;-74
2023/05/01 05:20:29;;;;;;;4.38;1.58;;;;;;;9.84;53.54;100216.69;6247631;28;20045;-74
2023/05/01 05:23:30;;;;;;;1.42;0.75;;;;;;;9.96;53.21;100218.63;6256553;28;20072;-74
2023/05/01 05:26:30;;;;;;;1.77;0.98;;;;;;;10.08;53.87;100224.91;6270069;28;20110;-74
2023/05/01 05:29:31;;;;;;;2.60;1.25;;;;;;;10.18;53.58;100225.25;6270772;28;20052;-75
2023/05/01 05:32:32;;;;;;;1.48;0.95;;;;;;;10.26;53.06;100221.28;6270720;28;20477;-74
2023/05/01 05:35:33;;;;;;;3.67;1.23;;;;;;;10.40;52.17;100227.50;6270214;28;20045;-75
2023/05/01 05:38:34;;;;;;;1.10;1.00;;;;;;;10.54;52.77;100224.09;6271655;28;20052;-74
2023/05/01 05:41:34;;;;;;;4.47;1.23;;;;;;;10.64;51.54;100225.22;6271643;28;20052;-72
2023/05/01 05:44:35;;;;;;;1.27;0.90;;;;;;;10.69;51.77;100223.22;6270352;28;20049;-72
2023/05/01 05:47:36;;;;;;;2.20;0.85;;;;;;;10.88;51.05;100225.56;6269739;28;20114;-72
2023/05/01 05:50:38;;;;;;;7.10;1.38;;;;;;;11.08;50.81;100225.22;6258106;28;20045;-72
2023/05/01 05:53:38;;;;;;;1.45;0.70;;;;;;;11.35;49.80;100237.53;6246554;28;20072;-72
2023/05/01 05:56:39;;;;;;;1.48;0.90;;;;;;;11.55;49.63;100240.66;6246107;28;20395;-71
2023/05/01 05:59:40;;;;;;;0.93;0.75;;;;;;;11.62;50.02;100234.13;6271513;28;20052;-72
2023/05/01 06:02:43;;;;;;;3.08;1.77;;;;;;;11.70;48.68;100240.56;6270094;28;20057;-72
2023/05/01 06:05:44;;;;;;;1.35;0.82;;;;;;;11.92;48.89;100254.91;6270007;28;20420;-72
2023/05/01 06:08:45;;;;;;;1.23;0.90;;;;;;;12.11;48.77;100251.97;6270960;28;20060;-72
2023/05/01 06:11:47;;;;;;;3.70;1.00;;;;;;;12.26;48.06;100247.53;6268202;28;20150;-72
2023/05/01 06:14:51;;;;;;;2.13;1.10;;;;;;;12.38;47.58;100246.72;6265491;28;20762;-72
2023/05/01 06:17:52;;;;;;;0.88;0.68;;;;;;;12.58;46.96;100245.44;6266313;28;20077;-72
2023/05/01 06:20:53;;;;;;;2.33;1.20;;;;;;;12.57;45.88;100253.38;6260992;28;20049;-72
2023/05/01 06:23:53;;;;;;;1.85;0.90;;;;;;;12.59;46.90;100256.72;6259889;28;20084;-72
2023/05/01 06:26:54;;;;;;;1.95;0.60;;;;;;;12.75;46.59;100262.63;6260196;28;20045;-71
2023/05/01 06:29:57;;;;;;;2.75;1.35;;;;;;;13.17;46.68;100255.41;6248640;28;20041;-72
2023/05/01 06:32:58;;;;;;;2.45;0.93;;;;;;;13.23;45.26;100260.22;6253815;28;20056;-72
2023/05/01 06:35:59;;;;;;;1.90;0.98;;;;;;;13.32;45.13;100268.44;6246199;28;20073;-72
2023/05/01 06:39:00;;;;;;;3.72;1.20;;;;;;;13.43;44.07;100268.56;6244923;28;20054;-71
2023/05/01 06:42:02;;;;;;;3.92;1.38;;;;;;;13.53;44.23;100259.09;6246144;28;20057;-72
2023/05/01 06:45:04;;;;;;;3.28;1.35;;;;;;;13.59;44.53;100261.28;6246175;28;20134;-72
2023/05/01 06:48:05;;;;;;;1.10;1.00;;;;;;;13.69;44.26;100262.31;6246335;28;20057;-71
2023/05/01 06:51:05;;;;;;;2.35;1.30;;;;;;;13.84;43.80;100254.31;6244742;28;20080;-72
2023/05/01 06:54:12;;;;;;;1.70;1.00;;;;;;;13.98;43.88;100259.41;6244921;28;20068;-72
2023/05/01 06:57:13;;;;;;;2.53;1.45;;;;;;;14.18;45.00;100257.09;6244643;28;20058;-72
2023/05/01 07:00:16;;;;;;;2.35;1.08;;;;;;;14.40;45.27;100259.00;6246018;28;20049;-71
2023/05/01 07:03:17;;;;;;;3.35;1.63;;;;;;;14.51;44.46;100259.88;6245874;28;20081;-72
2023/05/01 07:06:17;;;;;;;1.35;0.90;;;;;;;14.42;43.58;100251.84;6245185;28;20056;-72
2023/05/01 07:09:18;;;;;;;5.25;1.60;;;;;;;14.63;43.85;100263.41;6250581;28;20045;-72
2023/05/01 07:12:19;;;;;;;2.65;1.08;;;;;;;14.88;43.38;100257.13;6250316;28;20762;-72
2023/05/01 07:15:21;;;;;;;4.90;1.42;;;;;;;14.96;44.30;100267.06;6250486;28;20493;-71
2023/05/01 07:18:22;;;;;;;2.88;1.42;;;;;;;14.95;44.07;100262.78;6257001;28;20041;-72
2023/05/01 07:21:22;;;;;;;2.38;1.20;;;;;;;15.49;42.97;100258.66;6266989;28;20051;-72
2023/05/01 07:24:23;;;;;;;5.85;1.23;;;;;;;15.77;43.83;100259.13;6257378;28;20505;-72
2023/05/01 07:27:24;;;;;;;2.00;1.20;;;;;;;15.80;42.09;100261.53;6258881;28;20055;-72
2023/05/01 07:30:25;;;;;;;1.98;1.00;;;;;;;15.64;42.22;100267.94;6274276;28;20057;-73
2023/05/01 07:33:26;;;;;;;2.13;1.35;;;;;;;16.03;41.96;100264.94;6265940;28;20129;-72
2023/05/01 07:36:28;;;;;;;3.13;1.80;;;;;;;16.16;42.73;100264.78;6255276;28;20045;-75
2023/05/01 07:39:31;;;;;;;2.22;1.17;;;;;;;16.15;41.79;100271.84;6249321;28;20053;-75
2023/05/01 07:42:32;;;;;;;2.38;1.50;;;;;;;16.41;41.37;100266.22;6248170;28;20057;-75
2023/05/01 07:45:33;;;;;;;3.50;1.30;;;;;;;16.61;41.34;100272.50;6250275;28;20060;-75
2023/05/01 07:48:34;;;;;;;2.08;1.30;;;;;;;16.67;41.15;100272.00;6286344;28;20057;-75
2023/05/01 07:51:37;;;;;;;3.00;1.27;;;;;;;16.84;40.62;100273.25;6273948;28;20106;-75
2023/05/01 07:54:38;;;;;;;2.63;1.40;;;;;;;16.77;42.01;100275.53;6268175;28;20045;-75
2023/05/01 07:57:38;;;;;;;3.03;1.42;;;;;;;17.08;40.94;100272.97;6249008;28;20494;-75
2023/05/01 08:00:39;;;;;;;3.03;1.30;;;;;;;16.96;40.90;100269.56;6248028;28;20050;-75
2023/05/01 08:03:40;;;;;;;2.38;1.38;;;;;;;17.30;40.64;100254.38;6247903;28;20045;-75
2023/05/01 08:06:44;;;;;;;1.65;1.20;;;;;;;17.30;40.71;100258.81;6247830;28;20115;-75
2023/05/01 08:09:45;;;;;;;2.13;1.30;;;;;;;17.59;40.39;100266.84;6271506;28;20064;-75
2023/05/01 08:12:46;;;;;;;2.03;1.23;;;;;;;17.86;42.15;100254.84;6272563;28;20053;-75
2023/05/01 08:15:47;;;;;;;1.92;1.05;;;;;;;18.20;40.46;100257.13;6272554;28;20159;-76
2023/05/01 08:18:48;;;;;;;4.00;1.47;;;;;;;17.99;38.81;100254.59;6271684;28;20052;-76
2023/05/01 08:21:51;;;;;;;1.67;1.17;;;;;;;17.60;39.31;100257.94;6267924;28;20552;-75
2023/05/01 08:24:57;;;;;;;2.85;1.73;;;;;;;18.03;40.45;100261.28;6271997;28;20099;-75
2023/05/01 08:27:58;;;;;;;2.40;1.20;;;;;;;18.18;39.73;100259.06;6273154;28;20057;-75
2023/05/01 08:31:02;;;;;;;1.35;1.25;;;;;;;18.70;40.18;100255.16;6271732;28;20056;-75
2023/05/01 08:34:05;;;;;;;1.70;1.33;;;;;;;18.47;38.56;100259.94;6267362;28;20053;-76
2023/05/01 08:37:06;;;;;;;3.92;1.67;;;;;;;18.29;38.65;100262.41;6267890;28;20060;-75
2023/05/01 08:40:08;;;;;;;2.50;1.40;;;;;;;18.62;39.54;100260.31;6253742;28;20140;-75
2023/05/01 08:43:09;;;;;;;1.90;1.20;;;;;;;19.23;38.86;100268.84;6247838;28;20056;-75
2023/05/01 08:46:14;;;;;;;8.90;1.43;;;;;;;19.24;38.54;100260.78;6248257;28;20048;-76
2023/05/01 08:49:16;;;;;;;3.03;1.40;;;;;;;19.76;38.08;100267.41;6270568;28;20088;-76
2023/05/01 08:52:21;;;;;;;5.38;1.63;;;;;;;19.17;38.17;100253.56;6271564;28;20045;-76
2023/05/01 08:55:24;;;;;;;2.08;1.40;;;;;;;19.47;37.89;100257.75;6272623;28;20055;-75
2023/05/01 08:58:26;;;;;;;1.60;1.25;;;;;;;19.64;40.21;100256.16;6271421;28;20049;-76
2023/05/01 09:01:27;;;;;;;;;;;;;;;20.31;37.14;100264.66;6270479;28;20041;-77
2023/05/01 09:04:39;;;;;;;1.15;0.82;;;;;;;20.38;39.65;100262.25;6260262;28;19932;-76
2023/05/01 09:07:42;;;;;;;5.68;1.48;;;;;;;20.96;36.64;100263.53;6272207;28;20049;-76
2023/05/01 09:10:47;;;;;;;2.17;1.33;;;;;;;21.05;39.09;100265.28;6270961;28;20057;-76
2023/05/01 09:13:51;;;;;;;3.67;1.48;;;;;;;20.18;36.24;100262.41;6271038;28;20409;-76
2023/05/01 09:16:55;;;;;;;2.80;1.50;;;;;;;20.35;37.36;100255.44;6271863;28;20451;-76
2023/05/01 09:19:57;;;;;;;2.78;1.38;;;;;;;20.77;35.26;100260.09;6271967;28;20075;-75
2023/05/01 09:22:58;;;;;;;1.88;1.20;;;;;;;20.89;38.44;100253.56;6268857;28;20504;-76
2023/05/01 09:26:03;;;;;;;4.57;1.38;;;;;;;20.92;35.96;100258.56;6271820;28;20413;-76
2023/05/01 09:29:06;;;;;;;5.05;1.58;;;;;;;21.09;36.35;100248.06;6270879;28;20408;-76
2023/05/01 09:32:20;;;;;;;3.30;1.52;;;;;;;21.57;35.67;100253.78;6271907;28;20481;-76
2023/05/01 09:35:21;;;;;;;4.15;1.25;;;;;;;21.70;34.76;100252.34;6271719;28;20190;-76
2023/05/01 09:38:24;;;;;;;1.80;1.40;;;;;;;21.73;34.52;100253.84;6271921;28;20053;-76
2023/05/01 09:41:31;;;;;;;3.88;0.98;;;;;;;21.53;34.90;100251.44;6271135;28;20061;-76
2023/05/01 09:44:41;;;;;;;13.27;6.80;;;;;;;21.46;36.27;100242.47;6271517;28;20099;-75
2023/05/01 09:47:42;;;;;;;2.92;1.50;;;;;;;21.47;36.33;100243.28;6265782;28;20045;-76
2023/05/01 09:50:43;;;;;;;;;;;;;;;21.80;32.69;100244.22;6247320;28;20053;-76
2023/05/01 09:53:44;;;;;;;2.33;1.27;;;;;;;21.71;32.71;100234.59;6245609;28;19948;-76
2023/05/01 09:56:47;;;;;;;1.15;1.05;;;;;;;21.87;32.41;100234.63;6246775;28;20057;-76
2023/05/01 10:00:07;;;;;;;4.28;1.30;;;;;;;20.72;33.14;100234.06;6262534;28;20049;-76
2023/05/01 10:03:13;;;;;;;1.73;1.20;;;;;;;21.10;33.76;100221.34;6270174;28;20041;-76
2023/05/01 10:06:27;;;;;;;3.25;1.20;;;;;;;21.38;34.55;100231.78;6271445;28;20053;-77
2023/05/01 10:09:28;;;;;;;7.03;1.30;;;;;;;21.25;33.00;100229.56;6270348;28;20703;-76
2023/05/01 10:12:32;;;;;;;3.30;1.27;;;;;;;21.96;33.51;100224.84;6270097;28;20045;-76
2023/05/01 10:15:36;;;;;;;2.00;1.20;;;;;;;22.44;34.36;100225.91;6271131;28;20425;-76
2023/05/01 10:18:38;;;;;;;1.33;1.00;;;;;;;23.03;32.47;100228.34;6269886;28;20097;-75
2023/05/01 10:21:41;;;;;;;3.20;1.40;;;;;;;22.70;32.09;100224.91;6269774;28;20485;-76
2023/05/01 10:24:46;;;;;;;1.38;1.27;;;;;;;22.74;31.52;100226.22;6262192;28;20497;-76
2023/05/01 10:27:51;;;;;;;3.28;1.13;;;;;;;23.05;31.71;100226.34;6270917;28;20460;-76
2023/05/01 10:30:54;;;;;;;2.03;1.42;;;;;;;23.25;32.29;100220.66;6269760;28;20049;-76
2023/05/01 10:33:55;;;;;;;1.40;1.00;;;;;;;23.26;31.75;100223.13;6247184;28;20053;-75
2023/05/01 10:37:03;;;;;;;2.58;1.00;;;;;;;23.82;33.69;100217.72;6245269;28;20045;-76
2023/05/01 10:40:38;;;;;;;9.13;4.72;;;;;;;23.96;32.06;100224.13;6245968;28;20057;-76
2023/05/01 10:43:39;;;;;;;1.25;1.10;;;;;;;23.73;29.72;100224.09;6249913;28;20053;-76
2023/05/01 10:46:39;;;;;;;2.47;1.37;;;;;;;23.77;32.12;100221.94;6249629;28;20061;-76
2023/05/01 10:50:05;;;;;;;1.47;0.93;;;;;;;24.08;29.61;100219.22;6250978;28;20057;-76
2023/05/01 10:53:15;;;;;;;1.55;0.95;;;;;;;24.15;29.08;100220.16;6250945;28;20045;-76
2023/05/01 10:56:31;;;;;;;2.03;1.20;;;;;;;24.57;30.49;100223.38;6265214;28;20049;-75
2023/05/01 11:00:02;;;;;;;1.98;1.23;;;;;;;24.42;29.06;100208.13;6249763;28;20049;-76
2023/05/01 11:03:22;;;;;;;3.00;1.15;;;;;;;24.78;29.22;100212.00;6249073;28;20408;-76
2023/05/01 11:06:23;;;;;;;4.15;0.95;;;;;;;23.94;31.08;100213.66;6250437;28;20052;-76
2023/05/01 11:09:45;;;;;;;1.60;1.00;;;;;;;23.34;30.47;100214.28;6249014;28;20084;-76
2023/05/01 11:12:50;;;;;;;2.83;1.40;;;;;;;22.71;31.11;100210.59;6250214;28;20134;-76
2023/05/01 11:15:53;;;;;;;3.00;1.15;;;;;;;22.46;31.95;100201.81;6248972;28;20058;-75
2023/05/01 11:18:54;;;;;;;4.20;1.63;;;;;;;22.34;31.17;100198.66;6249997;28;20057;-75
2023/05/01 11:21:56;;;;;;;2.37;1.30;;;;;;;23.03;32.99;100198.25;6249872;28;20560;-76
2023/05/01 11:24:57;;;;;;;1.20;0.93;;;;;;;23.22;31.40;100192.53;6249919;28;20505;-75
2023/05/01 11:28:02;;;;;;;1.93;1.20;;;;;;;22.57;30.49;100192.66;6248631;28;20064;-75
2023/05/01 11:31:05;;;;;;;2.65;1.45;;;;;;;23.25;31.05;100189.53;6256083;28;20048;-76
2023/05/01 11:34:09;;;;;;;2.60;1.45;;;;;;;23.35;30.48;100189.34;6274194;28;20136;-76
2023/05/01 11:37:10;;;;;;;2.38;1.42;;;;;;;23.52;30.16;100187.41;6274600;28;20048;-76
2023/05/01 11:40:29;;;;;;;3.05;1.20;;;;;;;23.51;29.87;100183.94;6273133;28;20106;-76
2023/05/01 11:43:30;;;;;;;1.73;1.00;;;;;;;23.71;29.81;100180.81;6273115;28;20128;-76
2023/05/01 11:46:32;;;;;;;2.33;1.42;;;;;;;24.30;30.48;100180.25;6272924;28;20417;-76
2023/05/01 11:49:33;;;;;;;1.85;1.30;;;;;;;23.71;29.11;100183.47;6273262;28;20103;-76
2023/05/01 11:52:48;;;;;;;1.70;1.08;;;;;;;23.80;29.42;100182.44;6273040;28;20453;-76
2023/05/01 11:55:51;;;;;;;2.17;1.23;;;;;;;24.37;32.05;100175.00;6274321;28;20045;-76
2023/05/01 11:58:54;;;;;;;2.38;1.23;;;;;;;24.87;28.66;100179.72;6272753;28;20052;-75
2023/05/01 12:01:56;;;;;;;1.25;1.15;;;;;;;25.05;30.21;100170.50;6264409;28;20045;-76
2023/05/01 12:05:14;;;;;;;3.13;1.17;;;;;;;24.62;29.38;100167.63;6264186;28;20049;-76
2023/05/01 12:08:20;;;;;;;2.20;1.02;;;;;;;23.71;28.60;100164.81;6271652;28;20049;-76
2023/05/01 12:11:22;;;;;;;1.65;1.02;;;;;;;24.18;28.51;100158.50;6272209;28;20037;-73
2023/05/01 12:14:23;;;;;;;2.92;1.20;;;;;;;24.31;28.18;100160.56;6260911;28;20049;-73
2023/05/01 12:17:28;;;;;;;4.05;1.48;;;;;;;24.05;27.64;100147.59;6261947;28;20045;-73
2023/05/01 12:20:37;;;;;;;1.92;1.27;;;;;;;24.97;26.38;100155.41;6269619;28;20057;-73
2023/05/01 12:23:38;;;;;;;2.03;1.20;;;;;;;25.09;27.07;100143.25;6253862;28;20072;-73
2023/05/01 12:26:39;;;;;;;1.03;0.60;;;;;;;25.32;28.03;100153.81;6272306;28;20417;-73
2023/05/01 12:29:40;;;;;;;1.42;1.00;;;;;;;24.18;26.31;100155.84;6272071;28;20083;-73
2023/05/01 12:32:43;;;;;;;1.02;0.93;;;;;;;24.97;28.01;100150.06;6272986;28;20167;-73
2023/05/01 12:35:46;;;;;;;5.63;0.93;;;;;;;24.42;26.02;100151.28;6273274;28;20060;-73
2023/05/01 12:38:57;;;;;;;0.88;0.82;;;;;;;24.28;26.46;100143.09;6271820;28;20140;-73
2023/05/01 12:41:59;;;;;;;1.95;1.52;;;;;;;24.79;26.37;100134.44;6271574;28;20101;-73
2023/05/01 12:45:00;;;;;;;1.13;1.02;;;;;;;25.42;29.64;100132.16;6271720;28;20061;-73
2023/05/01 12:48:03;;;;;;;;;;;;;;;25.20;27.14;100141.09;6272310;28;20083;-73
2023/05/01 12:51:05;;;;;;;1.85;1.20;;;;;;;24.14;26.98;100125.22;6271372;28;19928;-73
2023/05/01 12:54:05;;;;;;;1.45;1.00;;;;;;;24.21;26.48;100134.16;6272954;28;20053;-73
2023/05/01 12:57:16;;;;;;;1.30;1.00;;;;;;;24.04;28.89;100128.13;6266268;28;20096;-73
2023/05/01 13:00:20;;;;;;;1.23;1.00;;;;;;;24.01;28.66;100139.16;6248660;28;20296;-73
2023/05/01 13:03:26;;;;;;;1.88;1.02;;;;;;;23.90;27.74;100132.41;6247135;28;20048;-72
2023/05/01 13:06:35;;;;;;;1.52;0.98;;;;;;;24.56;27.07;100128.34;6244966;28;20716;-73
2023/05/01 13:09:36;;;;;;;2.97;1.15;;;;;;;24.57;26.40;100127.34;6283474;28;20061;-72
2023/05/01 13:12:43;;;;;;;8.88;1.50;;;;;;;24.17;25.78;100122.19;6253477;28;20425;-73
2023/05/01 13:15:44;;;;;;;1.90;1.00;;;;;;;24.36;27.44;100123.53;6252391;28;20446;-73
2023/05/01 13:18:49;;;;;;;4.47;1.38;;;;;;;24.34;26.88;100120.22;6246249;28;20069;-73
2023/05/01 13:21:51;;;;;;;1.52;1.00;;;;;;;24.82;28.15;100120.72;6247188;28;20085;-73
2023/05/01 13:24:53;;;;;;;1.90;1.15;;;;;;;24.81;26.76;100119.09;6247345;28;20583;-73
2023/05/01 13:27:54;;;;;;;4.97;1.45;;;;;;;24.28;28.74;100111.09;6249828;28;20045;-73
2023/05/01 13:30:55;;;;;;;2.93;1.20;;;;;;;24.59;27.49;100118.16;6254572;28;20056;-74
2023/05/01 13:33:57;;;;;;;1.93;1.13;;;;;;;24.76;27.72;100110.78;6245968;28;20512;-74
2023/05/01 13:37:00;;;;;;;1.70;1.00;;;;;;;23.61;26.38;100109.13;6245691;28;20417;-73
2023/05/01 13:40:02;;;;;;;1.40;1.08;;;;;;;24.46;26.90;100101.91;6245913;28;20049;-73
2023/05/01 13:43:12;;;;;;;1.90;1.05;;;;;;;25.00;28.44;100099.00;6246583;28;20057;-73
2023/05/01 13:46:14;;;;;;;1.70;0.98;;;;;;;24.99;25.30;100102.66;6247083;28;20085;-74
2023/05/01 13:49:24;;;;;;;1.00;0.80;;;;;;;25.18;27.03;100093.22;6246733;28;20057;-73
2023/05/01 13:52:27;;;;;;;1.38;1.10;;;;;;;24.17;25.25;100100.03;6245508;28;20442;-73
2023/05/01 13:55:28;;;;;;;1.55;1.00;;;;;;;24.46;25.69;100102.75;6246861;28;20049;-73
2023/05/01 13:58:30;;;;;;;1.63;1.30;;;;;;;24.57;26.35;100092.69;6249121;28;20106;-73
2023/05/01 14:01:45;;;;;;;3.60;1.35;;;;;;;24.94;26.22;100089.06;6259002;28;20041;-74
2023/05/01 14:04:46;;;;;;;2.05;1.20;;;;;;;24.92;26.35;100091.09;6246940;28;20049;-73
2023/05/01 14:07:54;;;;;;;1.67;1.17;;;;;;;24.31;25.81;100086.72;6245603;28;20056;-73
2023/05/01 14:11:06;;;;;;;0.90;0.82;;;;;;;24.34;26.06;100083.72;6246538;28;20124;-74
2023/05/01 14:14:06;;;;;;;1.70;1.20;;;;;;;24.41;25.97;100075.81;6245431;28;20049;-73
2023/05/01 14:17:07;;;;;;;1.80;1.20;;;;;;;24.33;25.06;100079.38;6249848;28;20064;-74
2023/05/01 14:20:08;;;;;;;2.70;1.25;;;;;;;24.39;25.83;100079.66;6251572;28;20324;-74